createdAt,value
2023-05-28T00:00:33.201Z,95212.00
2023-05-28T00:01:33.201Z,95212.00
2023-05-28T00:02:33.391Z,95212.00
2023-05-28T00:03:33.367Z,95214.00
2023-05-28T00:04:33.245Z,95212.00
2023-05-28T00:05:33.172Z,95210.00
2023-05-28T00:06:33.180Z,95210.00
2023-05-28T00:07:33.152Z,95212.00
2023-05-28T00:08:33.135Z,95212.00
2023-05-28T00:09:33.127Z,95210.00
2023-05-28T00:10:33.123Z,95206.00
2023-05-28T00:11:33.130Z,95206.00
2023-05-28T00:12:33.135Z,95204.00
2023-05-28T00:13:33.101Z,95204.00
2023-05-28T00:14:33.107Z,95203.00
2023-05-28T00:15:33.091Z,95201.00
2023-05-28T00:16:33.101Z,95199.00
2023-05-28T00:17:33.096Z,95197.00
2023-05-28T00:18:33.068Z,95197.00
2023-05-28T00:19:33.074Z,95195.00
2023-05-28T00:20:33.218Z,95191.00
2023-05-28T00:21:33.126Z,95195.00
2023-05-28T00:22:33.144Z,95195.00
2023-05-28T00:23:33.148Z,95191.00
2023-05-28T00:24:33.164Z,95193.00
2023-05-28T00:25:33.187Z,95195.00
2023-05-28T00:26:33.210Z,95191.00
2023-05-28T00:27:33.235Z,95193.00
2023-05-28T00:28:33.282Z,95191.00
2023-05-28T00:29:33.266Z,95193.00
2023-05-28T00:30:33.321Z,95191.00
2023-05-28T00:31:33.356Z,95193.00
2023-05-28T00:32:33.335Z,95189.00
2023-05-28T00:33:33.315Z,95189.00
2023-05-28T00:34:33.360Z,95189.00
2023-05-28T00:35:33.403Z,95189.00
2023-05-28T00:36:33.442Z,95187.00
2023-05-28T00:37:33.478Z,95189.00
2023-05-28T00:38:33.524Z,95187.00
2023-05-28T00:39:33.571Z,95187.00
2023-05-28T00:40:33.614Z,95187.00
2023-05-28T00:41:33.674Z,95187.00
2023-05-28T00:42:33.718Z,95187.00
2023-05-28T00:43:33.761Z,95187.00
2023-05-28T00:44:33.870Z,95187.00
2023-05-28T00:45:33.910Z,95187.00
2023-05-28T00:46:34.105Z,95191.00
2023-05-28T00:47:34.038Z,95189.00
2023-05-28T00:48:34.004Z,95189.00
2023-05-28T00:49:34.032Z,95191.00
2023-05-28T00:50:34.084Z,95189.00
2023-05-28T00:51:34.109Z,95189.00
2023-05-28T00:52:34.146Z,95191.00
2023-05-28T00:53:34.163Z,95191.00
2023-05-28T00:54:35.124Z,95189.00
2023-05-28T00:55:34.237Z,95189.00
2023-05-28T00:56:34.289Z,95185.00
2023-05-28T00:57:34.344Z,95189.00
2023-05-28T00:58:34.397Z,95187.00
2023-05-28T00:59:34.436Z,95191.00
2023-05-28T01:00:34.581Z,95189.00
2023-05-28T01:01:34.544Z,95189.00
2023-05-28T01:02:34.664Z,95189.00
2023-05-28T01:03:34.688Z,95189.00
2023-05-28T01:04:34.738Z,95189.00
2023-05-28T01:05:34.786Z,95195.00
2023-05-28T01:06:34.871Z,95195.00
2023-05-28T01:07:34.916Z,95195.00
2023-05-28T01:08:34.969Z,95197.00
2023-05-28T01:09:35.024Z,95195.00
2023-05-28T01:10:35.078Z,95197.00
2023-05-28T01:11:35.134Z,95199.00
2023-05-28T01:12:35.209Z,95195.00
2023-05-28T01:13:35.249Z,95197.00
2023-05-28T01:14:35.298Z,95195.00
2023-05-28T01:15:35.348Z,95197.00
2023-05-28T01:16:35.410Z,95195.00
2023-05-28T01:17:35.427Z,95195.00
2023-05-28T01:18:35.441Z,95197.00
2023-05-28T01:19:35.478Z,95189.00
2023-05-28T01:20:35.560Z,95189.00
2023-05-28T01:21:35.598Z,95189.00
2023-05-28T01:22:35.571Z,95187.00
2023-05-28T01:23:35.593Z,95187.00
2023-05-28T01:24:35.644Z,95187.00
2023-05-28T01:25:35.694Z,95185.00
2023-05-28T01:26:35.721Z,95183.00
2023-05-28T01:27:35.734Z,95185.00
2023-05-28T01:28:35.756Z,95183.00
2023-05-28T01:29:35.787Z,95181.00
2023-05-28T01:30:35.830Z,95183.00
2023-05-28T01:31:35.927Z,95179.00
2023-05-28T01:32:35.937Z,95181.00
2023-05-28T01:33:35.924Z,95183.00
2023-05-28T01:34:35.940Z,95181.00
2023-05-28T01:35:35.978Z,95183.00
2023-05-28T01:36:35.984Z,95181.00
2023-05-28T01:37:35.988Z,95179.00
2023-05-28T01:38:35.999Z,95179.00
2023-05-28T01:39:36.010Z,95177.00
2023-05-28T01:40:36.024Z,95181.00
2023-05-28T01:41:36.039Z,95181.00
2023-05-28T01:42:36.057Z,95179.00
2023-05-28T01:43:36.057Z,95181.00
2023-05-28T01:44:36.072Z,95177.00
2023-05-28T01:45:36.087Z,95181.00
2023-05-28T01:46:36.185Z,95175.00
2023-05-28T01:47:36.146Z,95177.00
2023-05-28T01:48:36.160Z,95179.00
2023-05-28T01:49:36.149Z,95177.00
2023-05-28T01:50:36.169Z,95177.00
2023-05-28T01:51:36.148Z,95179.00
2023-05-28T01:52:36.142Z,95181.00
2023-05-28T01:53:36.140Z,95181.00
2023-05-28T01:54:36.142Z,95181.00
2023-05-28T01:55:36.157Z,95179.00
2023-05-28T01:56:36.163Z,95181.00
2023-05-28T01:57:36.166Z,95177.00
2023-05-28T01:58:36.182Z,95177.00
2023-05-28T01:59:36.215Z,95175.00
2023-05-28T02:00:36.235Z,95175.00
2023-05-28T02:01:36.292Z,95171.00
2023-05-28T02:02:36.339Z,95173.00
2023-05-28T02:03:36.344Z,95173.00
2023-05-28T02:04:36.290Z,95175.00
2023-05-28T02:05:36.265Z,95175.00
2023-05-28T02:06:36.286Z,95177.00
2023-05-28T02:07:36.308Z,95175.00
2023-05-28T02:08:36.304Z,95177.00
2023-05-28T02:09:36.316Z,95177.00
2023-05-28T02:10:36.318Z,95177.00
2023-05-28T02:11:36.340Z,95175.00
2023-05-28T02:12:36.369Z,95177.00
2023-05-28T02:13:36.420Z,95177.00
2023-05-28T02:14:36.451Z,95177.00
2023-05-28T02:15:36.474Z,95177.00
2023-05-28T02:16:36.615Z,95177.00
2023-05-28T02:17:36.587Z,95177.00
2023-05-28T02:18:36.536Z,95177.00
2023-05-28T02:19:36.558Z,95177.00
2023-05-28T02:20:36.654Z,95175.00
2023-05-28T02:21:36.627Z,95175.00
2023-05-28T02:22:36.643Z,95173.00
2023-05-28T02:23:36.695Z,95171.00
2023-05-28T02:24:36.721Z,95169.00
2023-05-28T02:25:36.770Z,95171.00
2023-05-28T02:26:36.796Z,95169.00
2023-05-28T02:27:36.785Z,95169.00
2023-05-28T02:28:36.844Z,95171.00
2023-05-28T02:29:36.901Z,95171.00
2023-05-28T02:30:37.661Z,95169.00
2023-05-28T02:31:37.024Z,95167.00
2023-05-28T02:32:37.024Z,95169.00
2023-05-28T02:33:37.023Z,95169.00
2023-05-28T02:34:37.070Z,95169.00
2023-05-28T02:35:37.088Z,95169.00
2023-05-28T02:36:37.137Z,95165.00
2023-05-28T02:37:37.141Z,95163.00
2023-05-28T02:38:37.176Z,95165.00
2023-05-28T02:39:37.229Z,95165.00
2023-05-28T02:40:37.246Z,95163.00
2023-05-28T02:41:37.261Z,95163.00
2023-05-28T02:42:37.282Z,95161.00
2023-05-28T02:43:37.325Z,95161.00
2023-05-28T02:44:37.287Z,95159.00
2023-05-28T02:45:37.313Z,95159.00
2023-05-28T02:46:37.318Z,95159.00
2023-05-28T02:47:37.374Z,95157.00
2023-05-28T02:48:37.367Z,95159.00
2023-05-28T02:49:37.407Z,95157.00
2023-05-28T02:50:37.438Z,95157.00
2023-05-28T02:51:37.508Z,95157.00
2023-05-28T02:52:37.512Z,95157.00
2023-05-28T02:53:37.507Z,95159.00
2023-05-28T02:54:37.521Z,95157.00
2023-05-28T02:55:37.510Z,95159.00
2023-05-28T02:56:37.497Z,95157.00
2023-05-28T02:57:37.503Z,95159.00
2023-05-28T02:58:37.542Z,95159.00
2023-05-28T02:59:37.590Z,95163.00
2023-05-28T03:00:37.621Z,95167.00
2023-05-28T03:01:37.696Z,95167.00
2023-05-28T03:02:37.759Z,95165.00
2023-05-28T03:03:37.915Z,95167.00
2023-05-28T03:04:37.749Z,95167.00
2023-05-28T03:05:37.775Z,95169.00
2023-05-28T03:06:37.768Z,95171.00
2023-05-28T03:07:37.823Z,95171.00
2023-05-28T03:08:37.834Z,95171.00
2023-05-28T03:09:37.835Z,95169.00
2023-05-28T03:10:37.850Z,95173.00
2023-05-28T03:11:37.858Z,95173.00
2023-05-28T03:12:37.897Z,95169.00
2023-05-28T03:13:37.932Z,95171.00
2023-05-28T03:14:37.943Z,95173.00
2023-05-28T03:15:37.985Z,95173.00
2023-05-28T03:16:38.081Z,95173.00
2023-05-28T03:17:38.086Z,95175.00
2023-05-28T03:18:38.102Z,95175.00
2023-05-28T03:19:38.052Z,95175.00
2023-05-28T03:20:38.179Z,95177.00
2023-05-28T03:21:38.120Z,95177.00
2023-05-28T03:22:38.141Z,95179.00
2023-05-28T03:23:38.166Z,95179.00
2023-05-28T03:24:38.233Z,95177.00
2023-05-28T03:25:38.274Z,95179.00
2023-05-28T03:26:38.686Z,95181.00
2023-05-28T03:27:38.348Z,95181.00
2023-05-28T03:28:38.390Z,95183.00
2023-05-28T03:29:38.468Z,95181.00
2023-05-28T03:30:38.529Z,95185.00
2023-05-28T03:31:38.623Z,95183.00
2023-05-28T03:32:38.677Z,95185.00
2023-05-28T03:33:38.690Z,95185.00
2023-05-28T03:34:38.763Z,95187.00
2023-05-28T03:35:38.809Z,95185.00
2023-05-28T03:36:38.884Z,95185.00
2023-05-28T03:37:38.904Z,95187.00
2023-05-28T03:38:38.938Z,95183.00
2023-05-28T03:39:38.975Z,95183.00
2023-05-28T03:40:39.037Z,95183.00
2023-05-28T03:41:39.029Z,95185.00
2023-05-28T03:42:39.052Z,95185.00
2023-05-28T03:43:39.075Z,95185.00
2023-05-28T03:44:39.138Z,95185.00
2023-05-28T03:45:39.153Z,95185.00
2023-05-28T03:46:39.279Z,95185.00
2023-05-28T03:47:39.280Z,95185.00
2023-05-28T03:48:39.301Z,95185.00
2023-05-28T03:49:39.349Z,95183.00
2023-05-28T03:50:39.393Z,95183.00
2023-05-28T03:51:39.455Z,95183.00
2023-05-28T03:52:39.481Z,95187.00
2023-05-28T03:53:39.571Z,95185.00
2023-05-28T03:54:39.595Z,95187.00
2023-05-28T03:55:39.644Z,95189.00
2023-05-28T03:56:39.681Z,95187.00
2023-05-28T03:57:39.703Z,95187.00
2023-05-28T03:58:39.716Z,95187.00
2023-05-28T03:59:39.729Z,95187.00
2023-05-28T04:00:39.750Z,95187.00
2023-05-28T04:01:39.800Z,95187.00
2023-05-28T04:02:39.916Z,95187.00
2023-05-28T04:03:40.068Z,95185.00
2023-05-28T04:04:40.036Z,95183.00
2023-05-28T04:05:40.009Z,95187.00
2023-05-28T04:06:40.059Z,95185.00
2023-05-28T04:07:40.109Z,95187.00
2023-05-28T04:08:40.180Z,95185.00
2023-05-28T04:09:40.162Z,95189.00
2023-05-28T04:10:40.216Z,95185.00
2023-05-28T04:11:40.248Z,95185.00
2023-05-28T04:12:40.293Z,95187.00
2023-05-28T04:13:40.273Z,95191.00
2023-05-28T04:14:40.266Z,95187.00
2023-05-28T04:15:40.251Z,95189.00
2023-05-28T04:16:40.275Z,95189.00
2023-05-28T04:17:40.345Z,95189.00
2023-05-28T04:18:40.308Z,95193.00
2023-05-28T04:19:40.327Z,95193.00
2023-05-28T04:20:40.370Z,95189.00
2023-05-28T04:21:40.354Z,95189.00
2023-05-28T04:22:40.368Z,95187.00
2023-05-28T04:23:40.383Z,95189.00
2023-05-28T04:24:40.408Z,95187.00
2023-05-28T04:25:40.425Z,95189.00
2023-05-28T04:26:40.432Z,95191.00
2023-05-28T04:27:40.458Z,95193.00
2023-05-28T04:28:40.517Z,95191.00
2023-05-28T04:29:40.495Z,95193.00
2023-05-28T04:30:40.534Z,95193.00
2023-05-28T04:31:40.618Z,95193.00
2023-05-28T04:32:40.635Z,95195.00
2023-05-28T04:33:40.682Z,95195.00
2023-05-28T04:34:40.724Z,95193.00
2023-05-28T04:35:40.790Z,95195.00
2023-05-28T04:36:40.852Z,95195.00
2023-05-28T04:37:41.041Z,95195.00
2023-05-28T04:38:40.962Z,95195.00
2023-05-28T04:39:41.012Z,95195.00
2023-05-28T04:40:41.082Z,95195.00
2023-05-28T04:41:41.098Z,95197.00
2023-05-28T04:42:41.160Z,95197.00
2023-05-28T04:43:41.217Z,95199.00
2023-05-28T04:44:41.309Z,95201.00
2023-05-28T04:45:41.341Z,95201.00
2023-05-28T04:46:41.535Z,95203.00
2023-05-28T04:47:41.411Z,95201.00
2023-05-28T04:48:41.453Z,95203.00
2023-05-28T04:49:41.527Z,95201.00
2023-05-28T04:50:41.565Z,95201.00
2023-05-28T04:51:41.607Z,95201.00
2023-05-28T04:52:41.634Z,95203.00
2023-05-28T04:53:41.628Z,95203.00
2023-05-28T04:54:42.465Z,95203.00
2023-05-28T04:55:41.614Z,95199.00
2023-05-28T04:56:41.614Z,95201.00
2023-05-28T04:57:41.613Z,95201.00
2023-05-28T04:58:41.605Z,95199.00
2023-05-28T04:59:41.612Z,95199.00
2023-05-28T05:00:41.640Z,95199.00
2023-05-28T05:01:41.659Z,95195.00
2023-05-28T05:02:41.642Z,95197.00
2023-05-28T05:03:41.633Z,95195.00
2023-05-28T05:04:41.600Z,95195.00
2023-05-28T05:05:41.586Z,95195.00
2023-05-28T05:06:41.580Z,95193.00
2023-05-28T05:07:41.562Z,95193.00
2023-05-28T05:08:41.557Z,95193.00
2023-05-28T05:09:41.544Z,95193.00
2023-05-28T05:10:41.529Z,95191.00
2023-05-28T05:11:41.528Z,95191.00
2023-05-28T05:12:41.522Z,95191.00
2023-05-28T05:13:41.521Z,95195.00
2023-05-28T05:14:41.536Z,95197.00
2023-05-28T05:15:41.547Z,95195.00
2023-05-28T05:16:41.690Z,95193.00
2023-05-28T05:17:41.514Z,95193.00
2023-05-28T05:18:41.498Z,95193.00
2023-05-28T05:19:41.486Z,95189.00
2023-05-28T05:20:41.567Z,95191.00
2023-05-28T05:21:41.479Z,95191.00
2023-05-28T05:22:41.469Z,95189.00
2023-05-28T05:23:41.455Z,95189.00
2023-05-28T05:24:41.442Z,95187.00
2023-05-28T05:25:41.433Z,95187.00
2023-05-28T05:26:41.423Z,95187.00
2023-05-28T05:27:41.408Z,95189.00
2023-05-28T05:28:41.403Z,95187.00
2023-05-28T05:29:41.391Z,95189.00
2023-05-28T05:30:41.381Z,95191.00
2023-05-28T05:31:41.406Z,95193.00
2023-05-28T05:32:41.416Z,95193.00
2023-05-28T05:33:41.361Z,95195.00
2023-05-28T05:34:41.347Z,95195.00
2023-05-28T05:35:41.359Z,95195.00
2023-05-28T05:36:41.330Z,95193.00
2023-05-28T05:37:41.325Z,95195.00
2023-05-28T05:38:41.323Z,95193.00
2023-05-28T05:39:41.331Z,95193.00
2023-05-28T05:40:41.330Z,95193.00
2023-05-28T05:41:41.326Z,95191.00
2023-05-28T05:42:41.320Z,95193.00
2023-05-28T05:43:41.328Z,95195.00
2023-05-28T05:44:41.351Z,95191.00
2023-05-28T05:45:41.422Z,95193.00
2023-05-28T05:46:41.430Z,95193.00
2023-05-28T05:47:41.545Z,95197.00
2023-05-28T05:48:41.575Z,95197.00
2023-05-28T05:49:41.612Z,95197.00
2023-05-28T05:50:41.692Z,95197.00
2023-05-28T05:51:41.764Z,95199.00
2023-05-28T05:52:41.825Z,95195.00
2023-05-28T05:53:41.900Z,95199.00
2023-05-28T05:54:41.948Z,95195.00
2023-05-28T05:55:42.007Z,95195.00
2023-05-28T05:56:42.080Z,95193.00
2023-05-28T05:57:42.115Z,95195.00
2023-05-28T05:58:42.188Z,95195.00
2023-05-28T05:59:42.250Z,95193.00
2023-05-28T06:00:42.305Z,95195.00
2023-05-28T06:01:42.410Z,95193.00
2023-05-28T06:02:42.625Z,95193.00
2023-05-28T06:03:42.470Z,95193.00
2023-05-28T06:04:42.630Z,95191.00
2023-05-28T06:05:42.616Z,95191.00
2023-05-28T06:06:42.635Z,95193.00
2023-05-28T06:07:42.670Z,95193.00
2023-05-28T06:08:42.729Z,95193.00
2023-05-28T06:09:42.767Z,95191.00
2023-05-28T06:10:42.786Z,95189.00
2023-05-28T06:11:42.836Z,95189.00
2023-05-28T06:12:42.887Z,95189.00
2023-05-28T06:13:42.934Z,95193.00
2023-05-28T06:14:42.987Z,95193.00
2023-05-28T06:15:43.318Z,95191.00
2023-05-28T06:16:43.120Z,95189.00
2023-05-28T06:17:43.172Z,95187.00
2023-05-28T06:18:43.208Z,95189.00
2023-05-28T06:19:43.297Z,95189.00
2023-05-28T06:20:43.561Z,95187.00
2023-05-28T06:21:43.401Z,95187.00
2023-05-28T06:22:43.457Z,95185.00
2023-05-28T06:23:43.532Z,95187.00
2023-05-28T06:24:43.591Z,95185.00
2023-05-28T06:25:43.645Z,95185.00
2023-05-28T06:26:43.713Z,95183.00
2023-05-28T06:27:43.769Z,95183.00
2023-05-28T06:28:43.832Z,95185.00
2023-05-28T06:29:43.895Z,95181.00
2023-05-28T06:30:43.975Z,95179.00
2023-05-28T06:31:44.081Z,95179.00
2023-05-28T06:32:44.134Z,95179.00
2023-05-28T06:33:44.126Z,95175.00
2023-05-28T06:34:44.188Z,95179.00
2023-05-28T06:35:44.226Z,95177.00
2023-05-28T06:36:44.311Z,95177.00
2023-05-28T06:37:44.339Z,95177.00
2023-05-28T06:38:44.424Z,95177.00
2023-05-28T06:39:44.478Z,95177.00
2023-05-28T06:40:44.532Z,95177.00
2023-05-28T06:41:44.593Z,95177.00
2023-05-28T06:42:44.643Z,95175.00
2023-05-28T06:43:44.698Z,95175.00
2023-05-28T06:44:44.756Z,95175.00
2023-05-28T06:45:44.815Z,95175.00
2023-05-28T06:46:44.932Z,95169.00
2023-05-28T06:47:44.983Z,95171.00
2023-05-28T06:48:45.004Z,95169.00
2023-05-28T06:49:45.088Z,95169.00
2023-05-28T06:50:45.100Z,95171.00
2023-05-28T06:51:45.156Z,95169.00
2023-05-28T06:52:45.235Z,95169.00
2023-05-28T06:53:45.259Z,95169.00
2023-05-28T06:54:45.321Z,95169.00
2023-05-28T06:55:45.381Z,95167.00
2023-05-28T06:56:45.437Z,95171.00
2023-05-28T06:57:45.494Z,95171.00
2023-05-28T06:58:45.563Z,95169.00
2023-05-28T06:59:45.580Z,95167.00
2023-05-28T07:00:45.641Z,95167.00
2023-05-28T07:01:45.734Z,95167.00
2023-05-28T07:02:45.798Z,95167.00
2023-05-28T07:03:45.811Z,95167.00
2023-05-28T07:04:45.904Z,95165.00
2023-05-28T07:05:45.980Z,95161.00
2023-05-28T07:06:45.952Z,95161.00
2023-05-28T07:07:46.008Z,95161.00
2023-05-28T07:08:46.084Z,95159.00
2023-05-28T07:09:46.109Z,95161.00
2023-05-28T07:10:46.158Z,95161.00
2023-05-28T07:11:46.204Z,95157.00
2023-05-28T07:12:46.245Z,95156.00
2023-05-28T07:13:46.301Z,95157.00
2023-05-28T07:14:46.349Z,95156.00
2023-05-28T07:15:46.416Z,95156.00
2023-05-28T07:16:46.598Z,95159.00
2023-05-28T07:17:46.556Z,95157.00
2023-05-28T07:18:46.527Z,95157.00
2023-05-28T07:19:46.578Z,95156.00
2023-05-28T07:20:46.632Z,95154.00
2023-05-28T07:21:46.648Z,95152.00
2023-05-28T07:22:46.692Z,95154.00
2023-05-28T07:23:46.739Z,95152.00
2023-05-28T07:24:46.910Z,95142.00
2023-05-28T07:25:46.801Z,95140.00
2023-05-28T07:26:46.840Z,95142.00
2023-05-28T07:27:46.880Z,95138.00
2023-05-28T07:28:46.933Z,95142.00
2023-05-28T07:29:46.965Z,95140.00
2023-05-28T07:30:46.984Z,95140.00
2023-05-28T07:31:47.085Z,95140.00
2023-05-28T07:32:47.096Z,95140.00
2023-05-28T07:33:47.079Z,95140.00
2023-05-28T07:34:47.110Z,95140.00
2023-05-28T07:35:47.146Z,95150.00
2023-05-28T07:36:47.168Z,95150.00
2023-05-28T07:37:47.200Z,95150.00
2023-05-28T07:38:47.230Z,95142.00
2023-05-28T07:39:47.270Z,95150.00
2023-05-28T07:40:47.317Z,95138.00
2023-05-28T07:41:47.319Z,95140.00
2023-05-28T07:42:48.488Z,95136.00
2023-05-28T07:43:47.353Z,95140.00
2023-05-28T07:44:47.343Z,95136.00
2023-05-28T07:45:47.362Z,95138.00
2023-05-28T07:46:47.412Z,95136.00
2023-05-28T07:47:47.353Z,95134.00
2023-05-28T07:48:47.318Z,95134.00
2023-05-28T07:49:47.321Z,95130.00
2023-05-28T07:50:47.309Z,95134.00
2023-05-28T07:51:47.297Z,95128.00
2023-05-28T07:52:47.301Z,95128.00
2023-05-28T07:53:47.284Z,95130.00
2023-05-28T07:54:47.271Z,95128.00
2023-05-28T07:55:47.261Z,95122.00
2023-05-28T07:56:47.271Z,95122.00
2023-05-28T07:57:47.277Z,95122.00
2023-05-28T07:58:47.231Z,95122.00
2023-05-28T07:59:47.228Z,95120.00
2023-05-28T08:00:47.223Z,95120.00
2023-05-28T08:01:47.210Z,95118.00
2023-05-28T08:02:49.248Z,95118.00
2023-05-28T08:03:47.344Z,95118.00
2023-05-28T08:04:47.222Z,95116.00
2023-05-28T08:05:47.168Z,95116.00
2023-05-28T08:06:47.157Z,95114.00
2023-05-28T08:07:47.155Z,95116.00
2023-05-28T08:08:47.146Z,95112.00
2023-05-28T08:09:47.133Z,95114.00
2023-05-28T08:10:47.148Z,95116.00
2023-05-28T08:11:47.128Z,95112.00
2023-05-28T08:12:47.135Z,95116.00
2023-05-28T08:13:47.100Z,95116.00
2023-05-28T08:14:47.093Z,95114.00
2023-05-28T08:15:47.103Z,95116.00
2023-05-28T08:16:47.130Z,95114.00
2023-05-28T08:17:47.064Z,95118.00
2023-05-28T08:18:47.071Z,95116.00
2023-05-28T08:19:59.248Z,95116.00
2023-05-28T08:20:47.066Z,95114.00
2023-05-28T08:21:47.017Z,95116.00
2023-05-28T08:22:47.016Z,95114.00
2023-05-28T08:23:47.013Z,95114.00
2023-05-28T08:24:46.991Z,95116.00
2023-05-28T08:25:46.987Z,95114.00
2023-05-28T08:26:46.982Z,95112.00
2023-05-28T08:27:46.975Z,95110.00
2023-05-28T08:28:46.996Z,95110.00
2023-05-28T08:29:46.963Z,95108.00
2023-05-28T08:30:46.970Z,95108.00
2023-05-28T08:31:47.057Z,95106.00
2023-05-28T08:32:46.941Z,95106.00
2023-05-28T08:33:46.929Z,95106.00
2023-05-28T08:34:46.941Z,95103.00
2023-05-28T08:35:46.913Z,95103.00
2023-05-28T08:36:46.915Z,95103.00
2023-05-28T08:37:46.900Z,95103.00
2023-05-28T08:38:46.898Z,95097.00
2023-05-28T08:39:46.919Z,95099.00
2023-05-28T08:40:46.885Z,95099.00
2023-05-28T08:41:46.889Z,95099.00
2023-05-28T08:42:46.879Z,95095.00
2023-05-28T08:43:46.864Z,95097.00
2023-05-28T08:44:46.873Z,95093.00
2023-05-28T08:45:46.834Z,95093.00
2023-05-28T08:46:46.872Z,95097.00
2023-05-28T08:47:46.833Z,95093.00
2023-05-28T08:48:46.849Z,95095.00
2023-05-28T08:49:46.779Z,95089.00
2023-05-28T08:50:46.766Z,95091.00
2023-05-28T08:51:46.755Z,95089.00
2023-05-28T08:52:46.744Z,95091.00
2023-05-28T08:53:46.722Z,95091.00
2023-05-28T08:54:46.704Z,95089.00
2023-05-28T08:55:46.704Z,95089.00
2023-05-28T08:56:46.690Z,95089.00
2023-05-28T08:57:46.672Z,95089.00
2023-05-28T08:58:46.678Z,95087.00
2023-05-28T08:59:46.659Z,95089.00
2023-05-28T09:00:46.801Z,95087.00
2023-05-28T09:01:46.635Z,95085.00
2023-05-28T09:02:46.727Z,95083.00
2023-05-28T09:03:46.665Z,95085.00
2023-05-28T09:04:46.593Z,95081.00
2023-05-28T09:05:46.576Z,95079.00
2023-05-28T09:06:46.595Z,95079.00
2023-05-28T09:07:46.554Z,95077.00
2023-05-28T09:08:46.612Z,95077.00
2023-05-28T09:09:47.993Z,95075.00
2023-05-28T09:10:46.525Z,95075.00
2023-05-28T09:11:46.503Z,95075.00
2023-05-28T09:12:46.488Z,95071.00
2023-05-28T09:13:46.474Z,95071.00
2023-05-28T09:14:46.469Z,95069.00
2023-05-28T09:15:46.446Z,95067.00
2023-05-28T09:16:46.511Z,95067.00
2023-05-28T09:17:46.535Z,95067.00
2023-05-28T09:18:46.417Z,95065.00
2023-05-28T09:19:46.406Z,95063.00
2023-05-28T09:20:46.458Z,95061.00
2023-05-28T09:21:46.383Z,95059.00
2023-05-28T09:22:46.369Z,95059.00
2023-05-28T09:23:46.351Z,95059.00
2023-05-28T09:24:46.330Z,95059.00
2023-05-28T09:25:46.323Z,95057.00
2023-05-28T09:26:46.310Z,95057.00
2023-05-28T09:27:46.292Z,95054.00
2023-05-28T09:28:46.307Z,95052.00
2023-05-28T09:29:46.270Z,95050.00
2023-05-28T09:30:46.361Z,95046.00
2023-05-28T09:31:46.270Z,95046.00
2023-05-28T09:32:46.333Z,95044.00
2023-05-28T09:33:46.254Z,95044.00
2023-05-28T09:34:46.232Z,95044.00
2023-05-28T09:35:46.227Z,95044.00
2023-05-28T09:36:46.209Z,95044.00
2023-05-28T09:37:46.183Z,95046.00
2023-05-28T09:38:46.189Z,95044.00
2023-05-28T09:39:46.159Z,95044.00
2023-05-28T09:40:46.137Z,95044.00
2023-05-28T09:41:46.133Z,95046.00
2023-05-28T09:42:46.119Z,95044.00
2023-05-28T09:43:46.112Z,95042.00
2023-05-28T09:44:46.096Z,95044.00
2023-05-28T09:45:46.079Z,95042.00
2023-05-28T09:46:46.123Z,95038.00
2023-05-28T09:47:46.269Z,95038.00
2023-05-28T09:48:46.088Z,95036.00
2023-05-28T09:49:46.055Z,95038.00
2023-05-28T09:50:46.062Z,95040.00
2023-05-28T09:51:46.022Z,95038.00
2023-05-28T09:52:46.048Z,95036.00
2023-05-28T09:53:46.006Z,95034.00
2023-05-28T09:54:45.990Z,95032.00
2023-05-28T09:55:45.971Z,95032.00
2023-05-28T09:56:45.968Z,95036.00
2023-05-28T09:57:45.953Z,95032.00
2023-05-28T09:58:45.930Z,95034.00
2023-05-28T09:59:45.944Z,95032.00
2023-05-28T10:00:45.908Z,95030.00
2023-05-28T10:01:45.943Z,95034.00
2023-05-28T10:02:45.985Z,95030.00
2023-05-28T10:03:46.064Z,95028.00
2023-05-28T10:04:45.886Z,95030.00
2023-05-28T10:05:45.866Z,95030.00
2023-05-28T10:06:45.851Z,95026.00
2023-05-28T10:07:45.810Z,95028.00
2023-05-28T10:08:45.809Z,95028.00
2023-05-28T10:09:45.808Z,95024.00
2023-05-28T10:10:45.761Z,95024.00
2023-05-28T10:11:45.749Z,95026.00
2023-05-28T10:12:45.736Z,95024.00
2023-05-28T10:13:45.750Z,95024.00
2023-05-28T10:14:45.707Z,95028.00
2023-05-28T10:15:45.689Z,95024.00
2023-05-28T10:16:45.719Z,95024.00
2023-05-28T10:17:45.702Z,95024.00
2023-05-28T10:18:45.651Z,95020.00
2023-05-28T10:19:45.645Z,95020.00
2023-05-28T10:20:45.701Z,95020.00
2023-05-28T10:21:45.602Z,95018.00
2023-05-28T10:22:45.580Z,95016.00
2023-05-28T10:23:45.559Z,95016.00
2023-05-28T10:24:45.553Z,95012.00
2023-05-28T10:25:45.534Z,95010.00
2023-05-28T10:26:45.510Z,95012.00
2023-05-28T10:27:45.504Z,95010.00
2023-05-28T10:28:45.473Z,95010.00
2023-05-28T10:29:45.507Z,95010.00
2023-05-28T10:30:45.458Z,95007.00
2023-05-28T10:31:45.431Z,95009.00
2023-05-28T10:32:45.466Z,95012.00
2023-05-28T10:33:45.483Z,95012.00
2023-05-28T10:34:45.449Z,95014.00
2023-05-28T10:35:45.499Z,95014.00
2023-05-28T10:36:45.546Z,95012.00
2023-05-28T10:37:45.504Z,95014.00
2023-05-28T10:38:45.505Z,95010.00
2023-05-28T10:39:45.501Z,95010.00
2023-05-28T10:40:45.506Z,95007.00
2023-05-28T10:41:45.523Z,95007.00
2023-05-28T10:42:45.553Z,95009.00
2023-05-28T10:43:45.578Z,95007.00
2023-05-28T10:44:45.601Z,95007.00
2023-05-28T10:45:45.680Z,95005.00
2023-05-28T10:46:45.666Z,95003.00
2023-05-28T10:47:45.783Z,95003.00
2023-05-28T10:48:45.755Z,95001.00
2023-05-28T10:49:45.783Z,95003.00
2023-05-28T10:50:45.801Z,94999.00
2023-05-28T10:51:45.819Z,94997.00
2023-05-28T10:52:45.860Z,94997.00
2023-05-28T10:53:45.851Z,94995.00
2023-05-28T10:54:45.871Z,94995.00
2023-05-28T10:55:45.889Z,94995.00
2023-05-28T10:56:45.868Z,94993.00
2023-05-28T10:57:45.846Z,94995.00
2023-05-28T10:58:45.872Z,94993.00
2023-05-28T10:59:45.916Z,94993.00
2023-05-28T11:00:45.925Z,94997.00
2023-05-28T11:01:46.034Z,94991.00
2023-05-28T11:02:46.101Z,94991.00
2023-05-28T11:03:46.107Z,94989.00
2023-05-28T11:04:46.036Z,94989.00
2023-05-28T11:05:46.068Z,94985.00
2023-05-28T11:06:46.109Z,94985.00
2023-05-28T11:07:46.125Z,94981.00
2023-05-28T11:08:46.185Z,94981.00
2023-05-28T11:09:46.157Z,94983.00
2023-05-28T11:10:46.199Z,94981.00
2023-05-28T11:11:46.239Z,94981.00
2023-05-28T11:12:46.225Z,94981.00
2023-05-28T11:13:46.258Z,94979.00
2023-05-28T11:14:46.286Z,94977.00
2023-05-28T11:15:46.326Z,94975.00
2023-05-28T11:16:46.432Z,94977.00
2023-05-28T11:17:46.632Z,94973.00
2023-05-28T11:18:46.440Z,94971.00
2023-05-28T11:19:46.474Z,94973.00
2023-05-28T11:20:46.558Z,94973.00
2023-05-28T11:21:46.552Z,94969.00
2023-05-28T11:22:46.564Z,94969.00
2023-05-28T11:23:46.582Z,94969.00
2023-05-28T11:24:46.618Z,94967.00
2023-05-28T11:25:46.650Z,94965.00
2023-05-28T11:26:46.675Z,94962.00
2023-05-28T11:27:46.683Z,94960.00
2023-05-28T11:28:46.700Z,94958.00
2023-05-28T11:29:46.708Z,94958.00
2023-05-28T11:30:46.715Z,94956.00
2023-05-28T11:31:46.829Z,94954.00
2023-05-28T11:32:46.800Z,94954.00
2023-05-28T11:33:46.794Z,94952.00
2023-05-28T11:34:46.840Z,94954.00
2023-05-28T11:35:46.830Z,94954.00
2023-05-28T11:36:46.872Z,94952.00
2023-05-28T11:37:46.927Z,94952.00
2023-05-28T11:38:46.909Z,94952.00
2023-05-28T11:39:46.890Z,94952.00
2023-05-28T11:40:46.901Z,94954.00
2023-05-28T11:41:46.883Z,94952.00
2023-05-28T11:42:46.898Z,94946.00
2023-05-28T11:43:46.902Z,94950.00
2023-05-28T11:44:46.903Z,94948.00